Time;durP1;ratioP1;P1;durP2;ratioP2;P2;SDS_P1;SDS_P2;PMS_P1;PMS_P2;Temp;Humidity;BMP_temperature;BMP_pressure;BME280_temperature;BME280_humidity;BME280_pressure;Samples;Min_cycle;Max_cycle;Signal;HPM_P1;HPM_P2
2023/01/20 00:00:40;;;;;;;;;11.00;9.50;;;;;20.14;40.93;101226.00;5057962;28;45323;-70
2023/01/20 00:03:05;;;;;;;;;13.00;12.00;;;;;20.12;40.56;101223.50;5057879;28;45297;-70
2023/01/20 00:05:30;;;;;;;;;10.00;10.00;;;;;20.12;40.89;101235.88;5057858;28;45273;-70
2023/01/20 00:07:56;;;;;;;;;14.25;13.00;;;;;20.12;40.55;101239.34;5057464;28;45312;-69
2023/01/20 00:10:21;;;;;;;;;16.00;12.50;;;;;20.12;40.57;101246.44;5057556;28;45288;-70
2023/01/20 00:12:46;;;;;;;;;11.00;10.50;;;;;20.11;40.95;101248.25;5057440;28;46113;-70
2023/01/20 00:15:12;;;;;;;;;15.50;12.00;;;;;20.10;40.63;101241.31;5057692;28;45476;-70
2023/01/20 00:17:37;;;;;;;;;11.75;11.25;;;;;20.09;40.57;101236.19;5057747;28;45311;-70
2023/01/20 00:20:04;;;;;;;;;12.00;10.00;;;;;20.10;40.69;101254.50;5057576;28;45344;-70
2023/01/20 00:22:29;;;;;;;;;14.75;13.00;;;;;20.07;40.56;101250.38;5056505;28;46354;-70
2023/01/20 00:24:55;;;;;;;;;11.00;11.00;;;;;20.09;40.77;101252.84;5057070;28;45409;-69
2023/01/20 00:27:20;;;;;;;;;14.75;14.50;;;;;20.09;40.56;101260.75;5057613;28;45328;-70
2023/01/20 00:29:45;;;;;;;;;13.00;12.00;;;;;20.08;40.59;101256.50;5057536;28;45320;-70
2023/01/20 00:32:11;;;;;;;;;15.75;13.50;;;;;20.08;40.61;101256.50;5057235;28;45964;-70
2023/01/20 00:34:36;;;;;;;;;15.00;13.25;;;;;20.07;40.55;101268.84;5057358;28;45469;-70
2023/01/20 00:37:02;;;;;;;;;12.75;12.50;;;;;20.06;40.54;101261.91;5057459;28;45403;-70
2023/01/20 00:39:27;;;;;;;;;12.25;10.75;;;;;20.07;40.47;101266.22;5057007;28;45368;-70
2023/01/20 00:41:52;;;;;;;;;13.50;12.75;;;;;20.06;40.59;101263.75;5057268;28;46213;-70
2023/01/20 00:44:18;;;;;;;;;11.50;11.50;;;;;19.98;40.34;101253.13;5057235;28;45400;-70
2023/01/20 00:46:43;;;;;;;;;10.75;10.75;;;;;20.05;40.61;101264.72;5057062;28;45336;-70
2023/01/20 00:49:09;;;;;;;;;16.25;12.00;;;;;20.05;40.54;101267.34;5057208;28;45394;-70
2023/01/20 00:51:34;;;;;;;;;12.25;12.25;;;;;20.04;40.37;101263.03;5056531;28;46091;-68
2023/01/20 00:54:00;;;;;;;;;18.50;12.75;;;;;20.03;40.26;101270.16;5039098;28;45428;-70
2023/01/20 00:56:25;;;;;;;;;11.00;11.00;;;;;20.03;40.71;101271.97;5057283;28;45418;-70
2023/01/20 00:58:51;;;;;;;;;16.00;11.50;;;;;20.03;40.34;101275.44;5038669;28;45456;-70
2023/01/20 01:01:16;;;;;;;;;13.75;13.25;;;;;20.00;40.62;101273.13;5039010;28;46165;-70
2023/01/20 01:03:43;;;;;;;;;17.75;13.50;;;;;20.01;40.38;101277.41;5057059;28;45258;-70
2023/01/20 01:06:15;;;;;;;;;13.50;11.00;;;;;19.99;40.75;101276.72;5056581;28;45392;-70
2023/01/20 01:08:42;;;;;;;;;13.25;12.00;;;;;20.04;40.42;101278.91;5056890;28;45242;-70
2023/01/20 01:11:08;;;;;;;;;16.25;12.00;;;;;20.00;40.21;101274.91;5056415;28;47142;-70
2023/01/20 01:13:36;;;;;;;;;18.25;13.00;;;;;20.03;40.18;101288.66;5056665;28;45317;-70
2023/01/20 01:16:01;;;;;;;;;16.50;14.00;;;;;20.03;39.87;101286.03;5056837;28;45313;-70
2023/01/20 01:18:26;;;;;;;;;16.50;15.50;;;;;19.96;40.00;101282.31;5056579;28;45407;-70
2023/01/20 01:20:52;;;;;;;;;16.25;12.25;;;;;20.03;40.34;101293.09;5056288;28;45468;-70
2023/01/20 01:23:17;;;;;;;;;13.00;12.00;;;;;20.03;39.99;101293.09;5056690;28;45426;-70
2023/01/20 01:25:42;;;;;;;;;13.75;12.50;;;;;20.03;40.29;101293.09;5056629;28;45316;-70
2023/01/20 01:28:08;;;;;;;;;13.50;11.00;;;;;20.03;40.06;101298.38;5056583;28;45441;-70
2023/01/20 01:30:33;;;;;;;;;12.25;12.25;;;;;20.03;40.42;101308.97;5056244;28;47271;-70
2023/01/20 01:32:58;;;;;;;;;12.25;11.75;;;;;20.00;40.33;101302.16;5056656;28;45399;-70
2023/01/20 01:35:24;;;;;;;;;17.75;13.75;;;;;20.04;40.34;101300.03;5056204;28;45757;-70
2023/01/20 01:37:49;;;;;;;;;12.00;11.00;;;;;20.03;40.15;101307.16;5056409;28;45364;-70
2023/01/20 01:40:15;;;;;;;;;17.25;14.00;;;;;20.02;40.22;101308.13;5056199;28;48091;-70
2023/01/20 01:42:40;;;;;;;;;18.00;14.00;;;;;20.04;40.18;101318.53;5038535;28;45361;-70
2023/01/20 01:45:21;;;;;;;;;13.75;11.50;;;;;19.92;40.13;101299.47;5056286;28;45531;-71
2023/01/20 01:48:08;;;;;;;;;14.75;13.75;;;;;20.05;40.18;101325.47;5056324;28;45276;-70
2023/01/20 01:50:55;;;;;;;;;14.00;12.75;;;;;20.04;40.19;101334.38;5055467;28;46276;-70
2023/01/20 01:53:21;;;;;;;;;15.25;12.75;;;;;20.04;40.21;101344.94;5056119;28;45533;-70
2023/01/20 01:55:54;;;;;;;;;16.00;15.00;;;;;20.01;39.88;101342.63;5056310;28;45338;-70
2023/01/20 01:58:25;;;;;;;;;13.00;10.75;;;;;20.03;39.98;101352.06;5056174;28;45396;-70
2023/01/20 02:00:51;;;;;;;;;14.00;12.25;;;;;20.01;40.08;101351.34;5055797;28;47210;-70
2023/01/20 02:03:17;;;;;;;;;16.25;13.00;;;;;20.03;39.89;101365.25;5055926;28;45377;-70
2023/01/20 02:05:44;;;;;;;;;12.50;11.00;;;;;20.03;39.97;101362.63;5055878;28;45506;-70
2023/01/20 02:08:09;;;;;;;;;17.50;15.00;;;;;20.02;40.50;101368.88;5056054;28;45307;-70
2023/01/20 02:10:35;;;;;;;;;15.00;12.00;;;;;19.96;40.00;101361.56;5054980;28;45985;-70
2023/01/20 02:13:01;;;;;;;;;13.25;12.25;;;;;19.96;40.02;101367.66;5055883;28;45330;-70
2023/01/20 02:15:34;;;;;;;;;15.00;13.25;;;;;20.01;39.92;101375.13;5038012;28;45420;-70
2023/01/20 02:18:19;;;;;;;;;15.50;14.00;;;;;19.93;40.00;101365.31;5055906;28;45246;-70
2023/01/20 02:21:12;;;;;;;;;12.25;11.75;;;;;20.01;40.08;101383.06;5055141;28;47038;-70
2023/01/20 02:23:58;;;;;;;;;17.25;13.75;;;;;20.00;40.23;101386.69;5055604;28;45292;-69
2023/01/20 02:26:33;;;;;;;;;14.75;14.00;;;;;20.00;39.95;101383.22;5055940;28;45502;-70
2023/01/20 02:29:13;;;;;;;;;18.00;12.75;;;;;19.98;40.07;101388.66;5055629;28;45438;-70
2023/01/20 02:31:57;;;;;;;;;15.75;13.00;;;;;19.99;39.90;101390.31;5055414;28;47044;-70
2023/01/20 02:34:41;;;;;;;;;14.00;12.25;;;;;19.98;39.67;101393.94;5055399;28;45589;-70
2023/01/20 02:37:14;;;;;;;;;13.75;12.00;;;;;19.95;39.91;101381.88;5055529;28;45407;-69
2023/01/20 02:39:59;;;;;;;;;12.50;12.50;;;;;19.98;39.98;101385.19;5055532;28;45364;-70
2023/01/20 02:42:36;;;;;;;;;17.25;12.75;;;;;19.96;39.92;101388.78;5055323;28;46192;-70
2023/01/20 02:45:12;;;;;;;;;16.00;12.50;;;;;19.96;39.90;101385.31;5055137;28;45354;-69
2023/01/20 02:47:51;;;;;;;;;14.00;14.00;;;;;19.92;39.90;101387.44;5055076;28;45593;-69
2023/01/20 02:50:25;;;;;;;;;13.75;13.00;;;;;19.95;39.80;101400.38;5055432;28;45517;-70
2023/01/20 02:52:57;;;;;;;;;13.50;11.75;;;;;19.95;39.88;101408.28;5055289;28;45372;-70
2023/01/20 02:55:32;;;;;;;;;10.50;8.75;;;;;19.90;39.89;101402.63;5055256;28;45386;-69
2023/01/20 02:58:04;;;;;;;;;15.25;14.00;;;;;19.93;39.93;101406.78;5055354;28;45337;-70
2023/01/20 03:00:41;;;;;;;;;17.50;10.25;;;;;19.85;39.57;101400.41;5037111;28;45381;-69
2023/01/20 03:03:11;;;;;;;;;15.00;14.25;;;;;19.93;39.60;101401.50;5054665;28;46257;-70
2023/01/20 03:05:43;;;;;;;;;15.75;12.00;;;;;19.84;39.61;101393.50;5055181;28;45407;-70
2023/01/20 03:08:12;;;;;;;;;18.50;14.25;;;;;19.93;39.69;101410.22;5054467;28;45329;-70
2023/01/20 03:10:40;;;;;;;;;13.50;13.25;;;;;19.94;39.77;101411.06;5055172;28;45491;-70
2023/01/20 03:13:29;;;;;;;;;13.25;13.25;;;;;19.94;39.92;101408.41;5054932;28;47120;-70
2023/01/20 03:16:00;;;;;;;;;14.50;13.00;;;;;19.93;39.80;101407.59;5054975;28;45368;-70
2023/01/20 03:18:28;;;;;;;;;12.00;12.00;;;;;19.94;39.97;101417.19;5054836;28;45423;-70
2023/01/20 03:20:54;;;;;;;;;14.25;13.00;;;;;19.94;39.77;101417.19;5056394;28;45577;-70
2023/01/20 03:23:19;;;;;;;;;13.50;13.00;;;;;19.94;39.59;101417.19;5058338;28;45351;-70
2023/01/20 03:25:48;;;;;;;;;14.50;14.50;;;;;19.89;39.63;101419.44;5058472;28;45367;-70
2023/01/20 03:28:13;;;;;;;;;16.50;14.25;;;;;19.92;39.81;101421.78;5058510;28;45331;-70
2023/01/20 03:30:38;;;;;;;;;16.75;15.00;;;;;19.93;39.68;101419.97;5058453;28;45218;-70
2023/01/20 03:33:04;;;;;;;;;19.75;15.50;;;;;19.93;39.81;101419.97;5057954;28;45931;-70
2023/01/20 03:35:30;;;;;;;;;14.50;14.50;;;;;19.93;39.58;101419.97;5058303;28;45304;-70
2023/01/20 03:37:56;;;;;;;;;14.25;14.00;;;;;19.93;39.61;101422.63;5058387;28;45356;-70
2023/01/20 03:40:27;;;;;;;;;15.00;13.50;;;;;19.83;39.55;101412.94;5058394;28;45215;-70
2023/01/20 03:43:08;;;;;;;;;15.25;13.75;;;;;19.93;39.72;101426.06;5058200;28;46337;-70
2023/01/20 03:45:48;;;;;;;;;17.00;14.25;;;;;19.94;39.47;101430.38;5057554;28;45622;-69
2023/01/20 03:48:34;;;;;;;;;15.50;14.50;;;;;19.93;39.48;101431.34;5057906;28;45428;-70
2023/01/20 03:51:38;;;;;;;;;19.25;15.25;;;;;19.95;39.47;101428.59;5057953;28;45348;-70
2023/01/20 03:54:13;;;;;;;;;17.00;15.25;;;;;19.94;39.45;101438.31;5057963;28;45289;-70
2023/01/20 03:56:46;;;;;;;;;15.50;15.25;;;;;19.94;39.43;101446.22;5057905;28;45401;-70
2023/01/20 03:59:14;;;;;;;;;17.00;14.25;;;;;19.95;39.14;101442.63;5057873;28;45368;-70
2023/01/20 04:01:43;;;;;;;;;15.75;15.50;;;;;19.95;39.71;101453.19;5057534;28;45361;-70
2023/01/20 04:04:13;;;;;;;;;13.50;12.50;;;;;19.95;39.53;101460.28;5057728;28;45328;-70
2023/01/20 04:06:40;;;;;;;;;17.50;13.00;;;;;19.96;39.20;101459.28;5057857;28;45288;-70
2023/01/20 04:09:11;;;;;;;;;16.75;15.25;;;;;19.95;39.52;101455.81;5057800;28;45419;-70
2023/01/20 04:11:36;;;;;;;;;18.50;14.25;;;;;19.95;39.58;101463.75;5057709;28;45230;-70
2023/01/20 04:14:02;;;;;;;;;16.50;14.25;;;;;19.95;39.56;101462.91;5057466;28;45368;-70
2023/01/20 04:16:27;;;;;;;;;15.75;12.25;;;;;19.94;39.48;101464.72;5057445;28;45297;-70
2023/01/20 04:18:53;;;;;;;;;13.25;12.25;;;;;19.95;39.35;101476.97;5057689;28;45381;-70
2023/01/20 04:21:23;;;;;;;;;11.50;10.00;;;;;19.96;39.56;101475.13;5057623;28;45323;-70
2023/01/20 04:23:56;;;;;;;;;15.75;13.75;;;;;19.92;39.46;101471.97;5057251;28;46151;-70
2023/01/20 04:26:21;;;;;;;;;18.25;13.75;;;;;19.94;39.45;101477.94;5057476;28;45305;-70
2023/01/20 04:28:47;;;;;;;;;14.00;12.75;;;;;19.94;39.58;101474.44;5057509;28;45444;-70
2023/01/20 04:31:13;;;;;;;;;13.50;13.50;;;;;19.88;39.33;101464.50;5057187;28;45516;-70
2023/01/20 04:33:39;;;;;;;;;14.25;12.25;;;;;19.87;39.68;101470.75;5056839;28;45403;-70
2023/01/20 04:36:04;;;;;;;;;15.50;13.25;;;;;19.93;39.41;101489.47;5057109;28;45436;-70
2023/01/20 04:38:30;;;;;;;;;18.25;15.50;;;;;19.81;39.29;101470.38;5057466;28;45339;-70
2023/01/20 04:40:55;;;;;;;;;14.50;12.25;;;;;19.92;39.45;101487.81;5057364;28;45452;-70
2023/01/20 04:43:20;;;;;;;;;15.50;13.25;;;;;19.93;39.25;101488.66;5057164;28;46122;-70
2023/01/20 04:45:45;;;;;;;;;19.75;15.50;;;;;19.91;39.47;101493.22;5056735;28;45238;-70
2023/01/20 04:48:11;;;;;;;;;15.00;13.25;;;;;19.93;39.26;101488.66;5057235;28;45344;-70
2023/01/20 04:50:39;;;;;;;;;13.50;13.50;;;;;19.92;39.41;101492.25;5057009;28;45424;-70
2023/01/20 04:53:05;;;;;;;;;16.75;14.00;;;;;19.93;39.47;101496.56;5057047;28;45278;-70
2023/01/20 04:55:31;;;;;;;;;18.50;15.25;;;;;19.87;39.35;101492.72;5057017;28;45285;-70
2023/01/20 04:57:57;;;;;;;;;22.00;14.00;;;;;19.91;39.69;101494.06;5056964;28;45265;-70
2023/01/20 05:00:22;;;;;;;;;17.00;13.75;;;;;19.92;39.39;101500.19;5056609;28;45287;-70
2023/01/20 05:02:47;;;;;;;;;18.00;14.50;;;;;19.91;39.34;101494.06;5056958;28;45345;-70
2023/01/20 05:05:13;;;;;;;;;17.00;16.75;;;;;19.92;39.25;101498.38;5056801;28;45598;-70
2023/01/20 05:07:38;;;;;;;;;16.50;12.75;;;;;19.92;39.53;101506.31;5056959;28;45319;-70
2023/01/20 05:10:04;;;;;;;;;15.50;14.50;;;;;19.81;39.26;101488.84;5056786;28;45312;-70
2023/01/20 05:12:29;;;;;;;;;17.25;15.50;;;;;19.91;39.40;101509.91;5056536;28;47159;-70
2023/01/20 05:14:55;;;;;;;;;16.25;11.25;;;;;19.78;39.41;101483.03;5056329;28;45394;-70
2023/01/20 05:17:20;;;;;;;;;21.25;14.75;;;;;19.90;39.28;101500.34;5056698;28;45258;-69
2023/01/20 05:19:45;;;;;;;;;17.00;14.50;;;;;19.91;39.42;101501.16;5056930;28;45307;-70
2023/01/20 05:22:11;;;;;;;;;15.25;13.25;;;;;19.89;39.41;101500.47;5056532;28;46215;-70
2023/01/20 05:24:36;;;;;;;;;18.00;14.00;;;;;19.90;39.27;101510.06;5056295;28;48824;-70
2023/01/20 05:27:01;;;;;;;;;19.25;18.25;;;;;19.90;39.28;101512.72;5056818;28;45380;-70
2023/01/20 05:29:28;;;;;;;;;16.00;13.50;;;;;19.80;39.23;101499.59;5056131;28;45530;-70
2023/01/20 05:31:53;;;;;;;;;16.00;13.00;;;;;19.89;39.25;101511.88;5056220;28;46151;-70
2023/01/20 05:34:18;;;;;;;;;14.75;13.75;;;;;19.83;39.37;101509.81;5056433;28;45399;-70
2023/01/20 05:36:44;;;;;;;;;15.75;15.25;;;;;19.90;39.31;101523.28;5056617;28;45327;-70
2023/01/20 05:39:09;;;;;;;;;22.00;17.00;;;;;19.90;39.43;101525.91;5056375;28;45374;-70
2023/01/20 05:41:35;;;;;;;;;14.50;14.25;;;;;19.88;39.05;101520.78;5055890;28;47044;-69
2023/01/20 05:44:00;;;;;;;;;15.00;13.75;;;;;19.89;39.23;101522.44;5055291;28;45533;-70
2023/01/20 05:46:25;;;;;;;;;16.75;14.75;;;;;19.88;39.40;101522.59;5056281;28;45507;-70
2023/01/20 05:48:51;;;;;;;;;14.50;12.50;;;;;19.88;39.36;101523.41;5055956;28;45627;-70
2023/01/20 05:51:16;;;;;;;;;14.00;12.25;;;;;19.90;39.39;101523.28;5055823;28;45380;-70
2023/01/20 05:53:41;;;;;;;;;14.25;13.00;;;;;19.89;39.52;101533.00;5056340;28;45384;-70
2023/01/20 05:56:07;;;;;;;;;16.00;15.00;;;;;19.85;39.42;101510.53;5055772;28;45362;-70
2023/01/20 05:58:32;;;;;;;;;15.25;14.25;;;;;19.74;39.45;101501.00;5056184;28;45376;-70
2023/01/20 06:01:09;;;;;;;;;18.00;14.50;;;;;19.91;39.41;101530.22;5055802;28;46018;-70
2023/01/20 06:03:35;;;;;;;;;16.25;13.50;;;;;19.90;39.44;101529.41;5056066;28;45319;-70
2023/01/20 06:06:04;;;;;;;;;13.50;12.25;;;;;19.91;39.34;101525.75;5056052;28;45416;-70
2023/01/20 06:08:29;;;;;;;;;15.00;13.75;;;;;19.92;39.41;101521.31;5055821;28;45337;-70
2023/01/20 06:10:55;;;;;;;;;20.50;14.00;;;;;19.92;39.34;101518.66;5055503;28;45424;-70
2023/01/20 06:13:20;;;;;;;;;17.00;14.50;;;;;19.85;39.14;101519.25;5055782;28;45367;-70
2023/01/20 06:15:53;;;;;;;;;18.00;12.50;;;;;19.93;39.62;101536.19;5056134;28;45318;-70
2023/01/20 06:18:19;;;;;;;;;15.25;13.75;;;;;19.93;39.25;101537.00;5055886;28;45378;-70
2023/01/20 06:20:44;;;;;;;;;16.75;13.50;;;;;19.95;38.93;101542.16;5055596;28;45284;-70
2023/01/20 06:23:10;;;;;;;;;12.25;12.00;;;;;19.96;39.24;101544.63;5055567;28;45247;-70
2023/01/20 06:25:35;;;;;;;;;16.50;13.75;;;;;19.98;39.27;101552.44;5055414;28;45321;-70
2023/01/20 06:28:01;;;;;;;;;14.00;13.75;;;;;19.99;38.98;101555.88;5055651;28;45261;-70
2023/01/20 06:30:26;;;;;;;;;19.50;14.50;;;;;20.00;39.46;101555.75;5055552;28;46201;-70
2023/01/20 06:32:53;;;;;;;;;13.50;11.50;;;;;20.00;39.64;101550.47;5036577;28;45376;-70
2023/01/20 06:35:19;;;;;;;;;12.25;12.25;;;;;20.01;39.63;101554.75;5055732;28;45306;-70
2023/01/20 06:37:44;;;;;;;;;14.25;12.75;;;;;20.03;39.71;101555.44;5054714;28;45436;-70
2023/01/20 06:40:10;;;;;;;;;15.50;11.50;;;;;20.05;39.93;101552.66;5054883;28;47568;-74
2023/01/20 06:42:35;;;;;;;;;18.00;14.25;;;;;20.05;40.06;101560.56;5055189;28;45592;-73
2023/01/20 06:45:01;;;;;;;;;13.25;13.25;;;;;20.06;39.87;101556.97;5055423;28;45316;-70
2023/01/20 06:47:26;;;;;;;;;15.50;13.50;;;;;20.06;40.21;101555.13;5055371;28;45546;-71
2023/01/20 06:50:07;;;;;;;;;18.50;15.25;;;;;20.07;40.25;101561.25;4973236;28;45462;-69
2023/01/20 06:52:32;;;;;;;;;17.00;13.25;;;;;20.07;40.38;101559.44;4973526;28;45373;-70
2023/01/20 06:54:57;;;;;;;;;12.75;12.75;;;;;20.07;40.34;101556.81;4973535;28;45378;-70
2023/01/20 06:57:23;;;;;;;;;14.50;12.25;;;;;20.07;40.34;101562.09;4977141;28;45386;-71
2023/01/20 06:59:48;;;;;;;;;10.50;10.25;;;;;20.04;40.41;101556.25;4977282;28;45391;-70
2023/01/20 07:02:13;;;;;;;;;14.50;12.75;;;;;20.06;40.75;101572.81;4976158;28;45499;-69
2023/01/20 07:04:38;;;;;;;;;11.75;11.00;;;;;20.04;40.60;101567.66;4976840;28;45414;-68
2023/01/20 07:07:04;;;;;;;;;16.25;12.25;;;;;20.05;40.59;101577.25;4976984;28;45352;-69
2023/01/20 07:09:29;;;;;;;;;18.75;14.00;;;;;20.06;40.59;101578.09;4976274;28;46346;-69
2023/01/20 07:11:55;;;;;;;;;13.00;12.25;;;;;20.05;40.44;101568.50;4976189;28;45395;-70
2023/01/20 07:14:20;;;;;;;;;11.50;11.50;;;;;20.00;40.46;101565.47;4981202;28;45590;-69
2023/01/20 07:16:46;;;;;;;;;10.75;10.00;;;;;20.03;40.57;101573.94;4976432;28;45492;-69
2023/01/20 07:19:11;;;;;;;;;13.25;11.00;;;;;20.01;40.62;101589.09;4967111;28;45437;-69
2023/01/20 07:21:37;;;;;;;;;13.25;12.75;;;;;19.99;40.50;101590.22;4966559;28;45493;-69
2023/01/20 07:24:02;;;;;;;;;13.25;12.25;;;;;20.01;40.42;101588.28;4966490;28;45411;-69
2023/01/20 07:26:28;;;;;;;;;13.50;13.50;;;;;19.92;40.25;101585.53;4979704;28;45293;-71
2023/01/20 07:28:54;;;;;;;;;12.50;12.00;;;;;20.00;40.35;101600.66;5048392;28;46002;-70
2023/01/20 07:31:22;;;;;;;;;14.00;12.75;;;;;19.98;40.38;101605.25;5047159;28;45384;-69
2023/01/20 07:33:48;;;;;;;;;11.00;9.00;;;;;19.90;40.17;101598.06;5046612;28;45317;-69
2023/01/20 07:36:15;;;;;;;;;16.00;14.50;;;;;19.98;40.25;101609.69;5047497;28;45401;-69
2023/01/20 07:38:40;;;;;;;;;15.25;12.25;;;;;19.96;40.15;101613.31;5047429;28;46170;-70
2023/01/20 07:41:10;;;;;;;;;15.75;12.75;;;;;19.96;40.40;101608.03;5048068;28;45422;-68
2023/01/20 07:43:36;;;;;;;;;14.00;13.25;;;;;19.95;40.17;101608.19;5047629;28;45362;-68
2023/01/20 07:46:04;;;;;;;;;12.00;10.25;;;;;19.95;40.28;101616.94;5046275;28;45517;-69
2023/01/20 07:48:31;;;;;;;;;13.25;12.50;;;;;19.96;40.21;101626.50;5048803;28;45687;-69
2023/01/20 07:51:05;;;;;;;;;12.25;12.25;;;;;19.95;40.26;101621.38;5047680;28;45474;-67
2023/01/20 07:53:33;;;;;;;;;14.25;13.00;;;;;19.96;40.12;101636.25;5046290;28;45329;-69
2023/01/20 07:56:03;;;;;;;;;12.00;10.75;;;;;19.96;40.14;101647.66;5054466;28;45289;-70
2023/01/20 07:58:29;;;;;;;;;15.25;14.00;;;;;19.95;39.83;101647.81;5057430;28;46264;-70
2023/01/20 08:00:54;;;;;;;;;12.75;11.75;;;;;19.82;39.94;101638.41;5057456;28;45356;-68
2023/01/20 08:03:20;;;;;;;;;11.75;10.75;;;;;19.95;40.16;101648.63;5057598;28;45357;-70
2023/01/20 08:05:46;;;;;;;;;11.75;11.50;;;;;19.96;40.15;101652.09;5056572;28;45431;-70
2023/01/20 08:08:11;;;;;;;;;13.00;13.00;;;;;19.94;40.13;101654.88;5055474;28;47032;-70
2023/01/20 08:10:36;;;;;;;;;11.00;11.00;;;;;19.92;40.16;101650.72;5057534;28;45357;-69
2023/01/20 08:13:02;;;;;;;;;12.00;11.75;;;;;19.94;40.05;101661.97;5057279;28;45541;-69
2023/01/20 08:15:27;;;;;;;;;15.00;13.25;;;;;19.95;40.02;101668.94;5057220;28;45344;-69
2023/01/20 08:17:59;;;;;;;;;14.50;13.25;;;;;19.93;40.01;101655.03;5057058;28;45486;-68
2023/01/20 08:20:25;;;;;;;;;14.50;12.75;;;;;19.92;40.04;101654.22;5057396;28;45353;-68
2023/01/20 08:22:50;;;;;;;;;11.25;11.25;;;;;19.93;39.92;101639.19;5056991;28;45400;-70
2023/01/20 08:25:15;;;;;;;;;11.75;10.00;;;;;19.91;40.10;101644.59;5057343;28;45495;-70
2023/01/20 08:27:50;;;;;;;;;13.00;11.25;;;;;19.92;39.97;101650.72;5057136;28;46142;-70
2023/01/20 08:30:16;;;;;;;;;15.50;10.50;;;;;19.91;39.95;101647.25;5056804;28;45353;-70
2023/01/20 08:32:41;;;;;;;;;11.50;10.75;;;;;19.91;40.18;101647.25;5057183;28;45452;-70
2023/01/20 08:35:07;;;;;;;;;13.00;12.00;;;;;19.90;39.82;101656.16;5057285;28;45340;-69
2023/01/20 08:37:35;;;;;;;;;13.00;8.75;;;;;19.90;39.89;101655.34;5056484;28;45400;-69
2023/01/20 08:40:00;;;;;;;;;13.25;12.00;;;;;19.90;40.08;101661.44;5057156;28;45430;-69
2023/01/20 08:42:26;;;;;;;;;13.00;12.50;;;;;19.89;39.96;101670.34;5057207;28;45385;-68
2023/01/20 08:44:52;;;;;;;;;15.00;11.25;;;;;19.86;39.97;101667.97;5057163;28;45415;-68
2023/01/20 08:47:17;;;;;;;;;10.25;8.50;;;;;19.88;40.20;101676.59;5056423;28;46177;-70
2023/01/20 08:49:43;;;;;;;;;12.00;11.50;;;;;19.88;40.12;101689.78;5036845;28;45420;-69
2023/01/20 08:52:08;;;;;;;;;14.25;12.00;;;;;19.88;40.05;101681.88;5036779;28;45430;-68
2023/01/20 08:54:33;;;;;;;;;13.00;12.50;;;;;19.87;40.00;101693.44;5037001;28;45372;-68
2023/01/20 08:56:59;;;;;;;;;12.75;10.00;;;;;19.87;40.15;101693.44;5036644;28;46721;-68
2023/01/20 08:59:25;;;;;;;;;13.00;12.00;;;;;19.86;39.97;101697.03;5036619;28;45366;-69
2023/01/20 09:01:50;;;;;;;;;13.00;11.75;;;;;19.85;40.16;101698.03;5036686;28;45564;-68
2023/01/20 09:04:16;;;;;;;;;13.25;10.25;;;;;19.85;40.02;101698.03;5036689;28;45336;-68
2023/01/20 09:06:48;;;;;;;;;14.00;12.00;;;;;19.85;39.90;101695.38;5036552;28;45392;-69
2023/01/20 09:09:15;;;;;;;;;15.75;11.75;;;;;19.84;39.86;101699.00;5036367;28;45281;-68
2023/01/20 09:11:49;;;;;;;;;8.00;8.00;;;;;19.85;40.03;101695.38;5036661;28;45367;-69
2023/01/20 09:14:14;;;;;;;;;13.75;12.50;;;;;19.82;40.14;101693.88;5042828;28;45297;-69
2023/01/20 09:16:39;;;;;;;;;13.00;12.00;;;;;19.84;39.99;101702.47;5056534;28;46242;-68
2023/01/20 09:19:05;;;;;;;;;9.50;9.00;;;;;19.84;39.86;101694.56;5056169;28;45290;-69
2023/01/20 09:21:30;;;;;;;;;15.00;10.00;;;;;19.84;39.98;101699.84;5056479;28;45351;-68
2023/01/20 09:23:55;;;;;;;;;14.25;10.25;;;;;19.84;39.76;101697.19;5056566;28;45288;-68
2023/01/20 09:26:21;;;;;;;;;13.25;9.75;;;;;19.84;39.90;101697.19;5056493;28;45911;-68
2023/01/20 09:28:46;;;;;;;;;14.75;12.50;;;;;19.75;39.89;101691.94;5056208;28;45678;-68
2023/01/20 09:31:12;;;;;;;;;11.50;9.75;;;;;19.83;39.96;101708.72;5056340;28;45456;-69
2023/01/20 09:33:39;;;;;;;;;13.75;9.00;;;;;19.84;39.93;101707.75;5056160;28;45429;-68
2023/01/20 09:36:07;;;;;;;;;10.50;10.00;;;;;19.83;39.82;101703.44;5056088;28;46238;-68
2023/01/20 09:44:20;;;;;;;;;14.00;11.00;;;;;19.83;39.98;101718.44;5056205;28;45403;-68
2023/01/20 09:47:20;;;;;;;;;15.75;12.25;;;;;19.83;40.20;101715.81;5055179;28;46050;-68
2023/01/20 09:53:14;;;;;;;;;12.00;10.00;;;;;19.83;39.95;101723.72;5048634;28;45410;-68
2023/01/20 09:55:52;;;;;;;;;11.50;10.00;;;;;19.84;40.11;101728.03;5055905;28;45279;-68
2023/01/20 09:58:47;;;;;;;;;11.00;10.75;;;;;19.84;40.08;101728.03;5037784;28;45441;-68
2023/01/20 10:01:23;;;;;;;;;9.50;7.75;;;;;19.84;39.83;101733.31;5055432;28;45380;-69
2023/01/20 10:03:51;;;;;;;;;11.25;9.50;;;;;19.84;40.16;101739.44;5055396;28;45320;-68
2023/01/20 10:06:25;;;;;;;;;12.75;11.00;;;;;19.85;40.09;101746.38;5055137;28;45364;-68
2023/01/20 10:08:58;;;;;;;;;10.50;10.50;;;;;19.86;39.73;101749.84;5055575;28;45360;-68
2023/01/20 10:11:27;;;;;;;;;8.75;8.00;;;;;19.85;39.79;101756.94;5055710;28;45356;-69
2023/01/20 10:14:07;;;;;;;;;11.00;11.00;;;;;19.85;39.83;101777.25;5055501;28;45289;-69
2023/01/20 10:16:43;;;;;;;;;13.25;10.75;;;;;19.85;39.70;101766.69;5055484;28;45562;-68
2023/01/20 10:19:17;;;;;;;;;12.50;11.00;;;;;19.86;40.06;101778.91;5036668;28;46057;-68
2023/01/20 10:21:50;;;;;;;;;9.50;9.50;;;;;19.86;39.75;101781.53;5055648;28;45365;-68
2023/01/20 10:24:21;;;;;;;;;14.00;10.50;;;;;19.81;40.01;101768.78;5055516;28;45289;-68
2023/01/20 10:27:03;;;;;;;;;10.75;9.75;;;;;19.85;39.76;101770.16;5055420;28;45434;-68
2023/01/20 10:29:33;;;;;;;;;14.00;11.00;;;;;19.84;39.76;101767.66;5055144;28;45399;-68
2023/01/20 10:32:00;;;;;;;;;13.75;11.00;;;;;19.85;39.74;101764.84;5054370;28;45344;-68
2023/01/20 10:34:32;;;;;;;;;10.00;8.75;;;;;19.79;39.87;101748.75;5055597;28;45571;-68
2023/01/20 10:37:06;;;;;;;;;6.75;4.50;;;;;19.84;39.79;101763.22;5037444;28;45480;-69
2023/01/20 10:39:41;;;;;;;;;12.50;8.75;;;;;19.85;39.73;101756.13;5055258;28;46119;-68
2023/01/20 10:42:13;;;;;;;;;9.50;9.25;;;;;19.85;39.82;101764.06;5055237;28;45349;-69
2023/01/20 10:44:39;;;;;;;;;10.00;9.25;;;;;19.83;39.82;101755.41;5055285;28;45296;-68
2023/01/20 10:47:07;;;;;;;;;11.50;10.25;;;;;19.85;39.87;101761.41;5054425;28;45462;-68
2023/01/20 10:49:44;;;;;;;;;12.50;10.25;;;;;19.84;39.76;101763.22;5055171;28;46495;-69
2023/01/20 10:52:19;;;;;;;;;12.25;9.50;;;;;19.84;39.81;101763.22;5054868;28;45385;-68
2023/01/20 10:54:50;;;;;;;;;8.75;8.75;;;;;19.84;39.75;101763.22;5055232;28;46218;-69
2023/01/20 10:57:15;;;;;;;;;9.75;7.00;;;;;19.84;39.80;101751.81;5055001;28;45343;-68
2023/01/20 10:59:48;;;;;;;;;11.00;10.00;;;;;19.84;39.83;101754.44;5055034;28;46969;-68
2023/01/20 11:02:27;;;;;;;;;9.50;8.75;;;;;19.84;39.82;101749.16;5054498;28;45334;-68
2023/01/20 11:04:59;;;;;;;;;11.00;8.75;;;;;19.84;39.91;101741.25;5055115;28;45363;-68
2023/01/20 11:07:25;;;;;;;;;9.00;9.00;;;;;19.83;39.74;101742.22;5054818;28;45313;-68
2023/01/20 11:09:50;;;;;;;;;10.00;10.00;;;;;19.78;39.98;101744.44;5054829;28;45322;-68
2023/01/20 11:12:20;;;;;;;;;9.00;9.00;;;;;19.83;39.76;101750.97;5054936;28;45347;-68
2023/01/20 11:14:47;;;;;;;;;10.50;8.25;;;;;19.83;39.87;101739.56;5054713;28;45476;-68
2023/01/20 11:17:19;;;;;;;;;9.00;7.75;;;;;19.79;39.67;101731.13;5054666;28;45397;-69
2023/01/20 11:19:46;;;;;;;;;13.00;11.25;;;;;19.83;39.67;101737.78;5054488;28;46919;-68
2023/01/20 11:22:13;;;;;;;;;8.75;7.75;;;;;19.82;39.92;101732.66;5054702;28;45170;-68
2023/01/20 11:24:44;;;;;;;;;9.25;8.00;;;;;19.82;39.90;101730.84;5054814;28;45335;-68
2023/01/20 11:27:19;;;;;;;;;9.00;7.00;;;;;19.82;39.80;101733.47;5054725;28;45358;-68